Time;durP1;ratioP1;P1;durP2;ratioP2;P2;SDS_P1;SDS_P2;PMS_P1;PMS_P2;Temp;Humidity;BMP_temperature;BMP_pressure;BME280_temperature;BME280_humidity;BME280_pressure;Samples;Min_cycle;Max_cycle;Signal;HPM_P1;HPM_P2
2023/06/23 00:01:23;;;;;;;9.98;5.78;;;;;;;26.03;63.76;99172.13;6246881;23;20283;-87
2023/06/23 00:03:54;;;;;;;11.85;6.28;;;;;;;25.96;64.24;99174.72;6246938;23;20160;-87
2023/06/23 00:06:20;;;;;;;9.63;6.13;;;;;;;25.92;64.15;99173.38;6246891;23;20565;-87
2023/06/23 00:08:47;;;;;;;8.63;5.85;;;;;;;25.91;64.26;99177.09;6220301;23;20159;-87
2023/06/23 00:11:15;;;;;;;11.33;6.33;;;;;;;25.88;64.13;99181.97;6246044;23;20207;-86
2023/06/23 00:13:42;;;;;;;10.00;6.33;;;;;;;25.87;64.18;99167.69;6246843;23;20163;-86
2023/06/23 00:16:08;;;;;;;10.60;6.27;;;;;;;25.89;64.35;99160.28;6220007;23;20550;-86
2023/06/23 00:18:37;;;;;;;10.93;6.23;;;;;;;25.95;63.96;99164.97;6246597;23;20181;-86
2023/06/23 00:21:09;;;;;;;10.23;6.57;;;;;;;25.97;63.39;99170.19;6220098;23;20157;-87
2023/06/23 00:23:37;;;;;;;9.73;6.00;;;;;;;25.89;63.48;99164.84;6220538;23;20232;-87
2023/06/23 00:26:04;;;;;;;11.27;6.57;;;;;;;25.74;63.98;99161.22;6246280;23;20204;-86
2023/06/23 00:28:31;;;;;;;11.02;6.88;;;;;;;25.66;64.55;99167.47;6246613;23;20211;-86
2023/06/23 00:30:58;;;;;;;11.57;7.13;;;;;;;25.67;64.26;99161.09;6246686;23;20145;-86
2023/06/23 00:33:24;;;;;;;11.13;6.40;;;;;;;25.61;64.48;99167.16;6246443;23;20149;-86
2023/06/23 00:35:51;;;;;;;10.97;6.50;;;;;;;25.56;65.00;99167.72;6219910;23;20218;-86
2023/06/23 00:38:18;;;;;;;14.40;7.17;;;;;;;25.53;65.34;99175.25;6219866;23;20184;-86
2023/06/23 00:40:44;;;;;;;9.73;6.80;;;;;;;25.46;65.73;99166.25;6219915;23;20262;-87
2023/06/23 00:43:11;;;;;;;12.53;7.20;;;;;;;25.46;65.58;99168.94;6247183;23;20604;-87
2023/06/23 00:45:38;;;;;;;12.63;7.30;;;;;;;25.44;66.20;99163.72;6246554;23;20145;-87
2023/06/23 00:48:05;;;;;;;12.17;7.03;;;;;;;25.45;65.82;99169.88;6246155;23;20141;-87
2023/06/23 00:50:32;;;;;;;10.77;6.37;;;;;;;25.47;65.35;99154.50;6246349;23;20145;-87
2023/06/23 00:52:59;;;;;;;10.53;6.90;;;;;;;25.42;65.19;99151.47;6219968;23;20160;-87
2023/06/23 00:55:28;;;;;;;16.23;7.67;;;;;;;25.34;65.74;99154.19;6246029;23;20592;-87
2023/06/23 00:57:57;;;;;;;9.97;6.53;;;;;;;25.33;65.44;99157.88;6246788;23;20173;-86
2023/06/23 01:00:27;;;;;;;10.30;6.67;;;;;;;25.28;65.53;99165.59;6246066;23;20547;-87
2023/06/23 01:02:59;;;;;;;13.40;7.57;;;;;;;25.22;66.06;99158.25;6246160;23;20216;-87
2023/06/23 01:05:35;;;;;;;10.97;6.77;;;;;;;25.23;66.06;99152.72;6171284;23;20161;-86
2023/06/23 01:08:33;;;;;;;10.50;7.00;;;;;;;25.26;65.87;99156.91;6246858;23;20227;-87
2023/06/23 01:11:28;;;;;;;11.63;6.80;;;;;;;25.28;65.94;99149.50;6246243;23;20173;-86
2023/06/23 01:14:42;;;;;;;10.63;6.87;;;;;;;25.33;65.54;99158.72;6245089;23;20153;-86
2023/06/23 01:17:19;;;;;;;11.80;6.77;;;;;;;25.26;64.95;99159.59;6173848;23;20520;-86
2023/06/23 01:20:27;;;;;;;14.80;7.27;;;;;;;25.20;65.49;99153.06;6246471;23;20163;-86
2023/06/23 01:23:14;;;;;;;10.07;6.67;;;;;;;25.13;65.35;99149.38;6095528;23;20156;-86
2023/06/23 01:25:57;;;;;;;12.40;7.20;;;;;;;25.04;65.68;99158.47;6070786;23;20279;-86
2023/06/23 01:28:41;;;;;;;11.20;7.17;;;;;;;24.96;66.15;99167.38;6071295;23;20238;-86
2023/06/23 01:31:13;;;;;;;10.73;6.33;;;;;;;24.87;66.64;99160.34;6072322;23;20488;-86
2023/06/23 01:33:48;;;;;;;10.83;6.97;;;;;;;24.89;66.66;99162.88;6070924;23;20156;-86
2023/06/23 01:36:23;;;;;;;9.13;6.40;;;;;;;24.89;66.83;99166.41;6095339;23;20271;-86
2023/06/23 01:38:55;;;;;;;9.57;6.37;;;;;;;24.87;66.64;99168.38;6095187;23;20153;-86
2023/06/23 01:41:23;;;;;;;14.30;7.37;;;;;;;24.83;67.06;99158.19;6070984;23;20187;-86
2023/06/23 01:43:55;;;;;;;12.70;7.20;;;;;;;24.90;67.02;99161.84;6094839;23;20163;-86
2023/06/23 01:46:27;;;;;;;13.90;6.97;;;;;;;24.91;66.60;99160.84;6071105;23;20188;-86
2023/06/23 01:48:59;;;;;;;10.87;6.67;;;;;;;24.84;67.05;99160.69;6095354;23;20152;-86
2023/06/23 01:51:28;;;;;;;10.27;6.60;;;;;;;24.80;67.31;99159.34;6071027;23;20184;-86
2023/06/23 01:53:55;;;;;;;9.00;5.97;;;;;;;24.79;67.44;99160.34;6182020;23;20164;-86
2023/06/23 01:56:25;;;;;;;14.37;6.60;;;;;;;24.76;67.39;99149.97;6245795;23;20145;-87
2023/06/23 01:58:55;;;;;;;9.23;6.00;;;;;;;24.75;67.46;99159.00;6245976;23;20164;-86
2023/06/23 02:01:22;;;;;;;10.80;6.77;;;;;;;24.75;67.30;99153.63;6246192;23;20159;-86
2023/06/23 02:03:50;;;;;;;11.97;7.23;;;;;;;24.70;67.50;99163.19;6219340;23;20561;-86
2023/06/23 02:06:18;;;;;;;10.60;6.37;;;;;;;24.62;67.61;99153.31;6220636;23;20156;-86
2023/06/23 02:08:46;;;;;;;12.33;6.73;;;;;;;24.62;67.69;99156.00;6245859;23;20145;-86
2023/06/23 02:11:14;;;;;;;10.83;6.10;;;;;;;24.61;67.80;99166.88;6247749;23;20149;-86
2023/06/23 02:13:43;;;;;;;13.67;6.63;;;;;;;24.61;67.64;99173.06;6248241;23;20180;-87
2023/06/23 02:16:13;;;;;;;9.67;6.90;;;;;;;24.68;67.34;99171.41;6221412;23;20161;-86
2023/06/23 02:18:41;;;;;;;12.60;6.73;;;;;;;24.68;67.25;99173.25;6247632;23;20178;-86
2023/06/23 02:21:11;;;;;;;9.73;6.10;;;;;;;24.66;67.05;99177.97;6247588;23;20156;-86
2023/06/23 02:23:38;;;;;;;10.97;6.93;;;;;;;24.64;67.19;99183.47;6222010;23;20528;-86
2023/06/23 02:26:07;;;;;;;11.63;7.40;;;;;;;24.67;67.28;99190.34;6232519;23;20515;-86
2023/06/23 02:28:35;;;;;;;11.00;6.67;;;;;;;24.68;67.19;99175.94;6217778;23;20293;-87
2023/06/23 02:31:04;;;;;;;15.07;7.10;;;;;;;24.65;67.30;99179.78;6217168;23;20672;-86
2023/06/23 02:33:31;;;;;;;12.63;7.20;;;;;;;24.59;67.23;99174.25;6217768;23;20157;-87
2023/06/23 02:35:59;;;;;;;11.03;6.73;;;;;;;24.50;67.75;99181.47;6191174;23;20181;-87
2023/06/23 02:38:28;;;;;;;11.80;6.77;;;;;;;24.50;67.70;99183.31;6217260;23;20177;-86
2023/06/23 02:40:57;;;;;;;12.97;7.07;;;;;;;24.41;68.08;99180.63;6190840;23;20157;-86
2023/06/23 02:43:35;;;;;;;9.87;7.40;;;;;;;24.41;68.17;99187.84;6217484;23;20228;-86
2023/06/23 02:46:05;;;;;;;12.13;6.47;;;;;;;24.42;68.29;99184.97;6191073;23;20161;-87
2023/06/23 02:48:37;;;;;;;11.20;7.20;;;;;;;24.46;67.96;99190.84;6217530;23;20146;-86
2023/06/23 02:51:08;;;;;;;11.20;7.20;;;;;;;24.45;68.26;99189.16;6218167;23;20276;-86
2023/06/23 02:53:45;;;;;;;10.80;6.83;;;;;;;24.47;68.07;99202.41;6217695;23;20568;-86
2023/06/23 02:56:18;;;;;;;10.70;6.13;;;;;;;24.40;67.98;99203.06;6217735;23;20137;-86
2023/06/23 02:58:52;;;;;;;12.93;7.07;;;;;;;24.37;68.04;99206.06;6191660;23;20158;-87
2023/06/23 03:01:22;;;;;;;12.40;7.50;;;;;;;24.37;68.23;99213.28;6217040;23;20170;-86
2023/06/23 03:03:49;;;;;;;10.10;6.50;;;;;;;24.41;68.13;99214.63;6217354;23;20211;-86
2023/06/23 03:06:23;;;;;;;12.83;7.50;;;;;;;24.45;68.30;99215.94;6217649;23;20177;-86
2023/06/23 03:08:50;;;;;;;19.10;6.97;;;;;;;24.36;68.48;99217.81;6217090;23;20586;-86
2023/06/23 03:11:18;;;;;;;10.63;6.33;;;;;;;24.24;69.17;99216.44;6190620;23;20237;-86
2023/06/23 03:13:46;;;;;;;11.80;7.70;;;;;;;24.22;68.96;99210.41;6217016;23;20158;-86
2023/06/23 03:16:25;;;;;;;11.30;7.30;;;;;;;24.25;69.51;99209.25;6216864;23;20156;-86
2023/06/23 03:19:24;;;;;;;11.73;7.20;;;;;;;24.21;69.57;99202.56;6190666;23;20149;-86
2023/06/23 03:22:33;;;;;;;15.93;6.63;;;;;;;24.21;69.89;99211.41;6216509;23;20526;-86
2023/06/23 03:25:05;;;;;;;11.63;7.53;;;;;;;24.27;69.70;99208.06;6198690;23;20300;-86
2023/06/23 03:27:36;;;;;;;12.47;7.33;;;;;;;24.28;69.58;99208.91;6220683;23;20145;-86
2023/06/23 03:30:20;;;;;;;12.83;7.10;;;;;;;24.30;70.07;99209.59;6247154;23;20458;-86
2023/06/23 03:32:50;;;;;;;11.30;7.50;;;;;;;24.34;70.50;99202.91;6247590;23;20137;-86
2023/06/23 03:35:30;;;;;;;13.23;8.23;;;;;;;24.40;70.48;99196.84;6247463;23;20548;-86
2023/06/23 03:38:02;;;;;;;18.30;8.37;;;;;;;24.44;70.66;99201.75;6248040;23;20172;-86
2023/06/23 03:40:38;;;;;;;12.13;7.80;;;;;;;24.47;71.30;99203.25;6247117;23;20154;-87
2023/06/23 03:43:34;;;;;;;12.67;7.63;;;;;;;24.46;71.62;99206.91;6220599;23;20160;-86
2023/06/23 03:46:13;;;;;;;12.93;7.97;;;;;;;24.51;71.84;99204.56;6219333;23;20176;-86
2023/06/23 03:48:42;;;;;;;14.90;7.67;;;;;;;24.50;71.82;99200.25;6220167;23;20145;-86
2023/06/23 03:51:12;;;;;;;12.97;8.17;;;;;;;24.55;71.85;99203.25;6245055;23;20145;-86
2023/06/23 03:53:40;;;;;;;13.63;8.73;;;;;;;24.59;71.86;99207.25;6245943;23;20145;-86
2023/06/23 03:56:11;;;;;;;11.70;7.47;;;;;;;24.67;71.96;99204.59;6246599;23;20145;-86
2023/06/23 03:58:39;;;;;;;12.80;8.03;;;;;;;24.65;71.31;99209.28;6245120;23;20165;-86
2023/06/23 04:01:06;;;;;;;12.20;7.40;;;;;;;24.67;70.22;99212.63;6219357;23;20565;-86
2023/06/23 04:03:37;;;;;;;17.27;7.60;;;;;;;24.68;69.61;99211.63;6246750;23;20173;-86
2023/06/23 04:06:07;;;;;;;12.97;8.03;;;;;;;24.71;69.50;99219.31;6247133;23;20199;-87
2023/06/23 04:08:36;;;;;;;14.23;7.87;;;;;;;24.69;68.58;99221.31;6246890;23;20224;-86
2023/06/23 04:11:04;;;;;;;13.63;8.80;;;;;;;24.64;68.29;99225.50;6246849;23;20569;-86
2023/06/23 04:13:34;;;;;;;14.90;8.23;;;;;;;24.53;68.53;99224.00;6246729;23;20173;-86
2023/06/23 04:16:03;;;;;;;15.80;8.13;;;;;;;24.53;69.03;99224.00;6220199;23;20157;-86
2023/06/23 04:18:33;;;;;;;14.10;8.57;;;;;;;24.56;69.07;99223.66;6220127;23;20188;-87
2023/06/23 04:21:02;;;;;;;14.60;9.13;;;;;;;24.55;69.22;99227.38;6219969;23;20153;-86
2023/06/23 04:23:32;;;;;;;14.13;8.70;;;;;;;24.56;69.46;99234.41;6247078;23;20149;-86
2023/06/23 04:26:01;;;;;;;14.37;8.97;;;;;;;24.61;69.72;99237.41;6233070;23;20272;-86
2023/06/23 04:28:30;;;;;;;13.70;8.60;;;;;;;24.69;69.47;99228.53;6216276;23;20141;-86
2023/06/23 04:30:58;;;;;;;16.50;9.87;;;;;;;24.71;69.86;99232.72;6216350;23;20160;-86
2023/06/23 04:33:26;;;;;;;16.80;9.83;;;;;;;24.68;70.63;99222.34;6189808;23;20487;-86
2023/06/23 04:35:59;;;;;;;15.00;9.70;;;;;;;24.76;70.50;99235.75;6216288;23;20184;-86
2023/06/23 04:38:30;;;;;;;16.00;9.27;;;;;;;24.89;70.55;99236.13;6190986;23;20191;-86
2023/06/23 04:41:00;;;;;;;17.57;10.57;;;;;;;24.90;71.16;99236.94;6215952;23;20150;-86
2023/06/23 04:43:37;;;;;;;14.37;9.53;;;;;;;24.99;70.80;99239.47;6189725;23;20180;-86
2023/06/23 04:46:24;;;;;;;19.67;10.37;;;;;;;25.09;70.77;99235.75;6189966;23;20145;-86
2023/06/23 04:48:59;;;;;;;19.63;10.33;;;;;;;25.15;70.96;99235.91;6216207;23;20240;-87
2023/06/23 04:51:34;;;;;;;14.93;9.13;;;;;;;25.21;71.45;99234.41;6164658;23;20592;-86
2023/06/23 04:54:10;;;;;;;15.50;10.10;;;;;;;25.24;71.64;99232.19;6216392;23;20134;-86
2023/06/23 04:56:39;;;;;;;20.33;9.80;;;;;;;25.30;71.72;99234.19;6189755;23;20543;-87
2023/06/23 04:59:09;;;;;;;21.50;11.00;;;;;;;25.40;71.74;99239.34;6216532;23;20201;-87
2023/06/23 05:01:38;;;;;;;17.67;10.97;;;;;;;25.59;71.25;99239.00;6216016;23;20142;-86
2023/06/23 05:04:06;;;;;;;19.77;11.97;;;;;;;25.66;71.05;99245.34;6189541;23;20161;-87
2023/06/23 05:06:35;;;;;;;18.40;11.73;;;;;;;25.71;71.00;99239.47;6215893;23;20156;-87
2023/06/23 05:09:03;;;;;;;17.73;12.03;;;;;;;25.80;71.07;99241.09;6215680;23;20236;-87
2023/06/23 05:11:32;;;;;;;21.67;12.77;;;;;;;25.85;70.98;99239.56;6215592;23;20161;-87
2023/06/23 05:14:02;;;;;;;18.23;11.67;;;;;;;26.04;70.68;99233.78;6216705;23;20157;-87
2023/06/23 05:16:31;;;;;;;20.63;11.83;;;;;;;26.24;69.80;99229.63;6189524;23;20570;-86
2023/06/23 05:18:59;;;;;;;16.30;11.07;;;;;;;26.42;69.59;99240.09;6215975;23;20469;-87
2023/06/23 05:21:27;;;;;;;16.02;11.38;;;;;;;26.48;70.13;99233.16;6215593;23;20157;-87
2023/06/23 05:23:57;;;;;;;16.33;11.00;;;;;;;26.64;69.73;99241.13;6215681;23;20220;-87
2023/06/23 05:26:26;;;;;;;17.13;10.57;;;;;;;26.79;69.45;99234.81;6234305;23;20200;-87
2023/06/23 05:28:54;;;;;;;17.00;11.00;;;;;;;26.82;69.32;99233.59;6218310;23;20199;-87
2023/06/23 05:31:24;;;;;;;17.05;10.98;;;;;;;26.89;68.86;99234.53;6244646;23;20222;-87
2023/06/23 05:33:52;;;;;;;13.02;7.70;;;;;;;27.11;66.69;99230.97;6218334;23;20484;-88
2023/06/23 05:36:21;;;;;;;12.30;7.88;;;;;;;27.12;65.84;99232.63;6218342;23;20176;-87
2023/06/23 05:38:51;;;;;;;14.93;8.05;;;;;;;27.27;65.79;99241.59;6245266;23;20157;-87
2023/06/23 05:41:18;;;;;;;12.77;8.23;;;;;;;27.32;65.41;99238.31;6219444;23;20169;-87
2023/06/23 05:43:45;;;;;;;9.63;6.63;;;;;;;27.51;64.67;99243.22;6244719;23;20149;-87
2023/06/23 05:46:14;;;;;;;10.35;6.63;;;;;;;27.68;63.24;99241.97;6218415;23;20153;-87
2023/06/23 05:48:53;;;;;;;15.30;7.93;;;;;;;27.71;63.05;99243.47;6244947;23;20153;-87
2023/06/23 05:51:26;;;;;;;11.27;7.55;;;;;;;27.65;63.03;99253.13;6245345;23;20612;-88
2023/06/23 05:53:56;;;;;;;11.98;7.45;;;;;;;27.79;63.16;99248.75;6218275;23;20149;-87
2023/06/23 05:56:32;;;;;;;10.32;6.90;;;;;;;27.96;63.00;99252.94;6218443;23;20153;-88
2023/06/23 05:59:05;;;;;;;15.13;8.07;;;;;;;28.13;62.46;99246.31;6218520;23;20245;-89
2023/06/23 06:01:38;;;;;;;13.75;8.88;;;;;;;28.14;62.89;99250.69;6245399;23;20138;-87
2023/06/23 06:04:09;;;;;;;13.50;8.32;;;;;;;28.28;62.82;99248.94;6218080;23;20236;-87
2023/06/23 06:06:36;;;;;;;12.10;7.55;;;;;;;28.41;61.39;99247.25;6218065;23;20153;-87
2023/06/23 06:09:07;;;;;;;12.65;6.85;;;;;;;28.64;59.07;99255.19;6218402;23;20177;-88
2023/06/23 06:11:37;;;;;;;15.02;8.52;;;;;;;28.71;60.55;99257.94;6217998;23;20223;-88
2023/06/23 06:14:07;;;;;;;12.13;7.05;;;;;;;28.71;58.72;99258.78;6217894;23;20580;-88
2023/06/23 06:16:36;;;;;;;12.15;6.75;;;;;;;28.78;57.63;99246.19;6218212;23;20141;-88
2023/06/23 06:19:05;;;;;;;10.40;6.03;;;;;;;28.93;57.71;99251.53;6217971;23;20160;-88
2023/06/23 06:21:35;;;;;;;9.35;6.38;;;;;;;29.08;56.42;99252.25;6244459;23;20149;-88
2023/06/23 06:24:05;;;;;;;10.88;7.20;;;;;;;29.31;56.69;99246.63;6217987;23;20608;-88
2023/06/23 06:26:31;;;;;;;11.75;7.28;;;;;;;29.54;55.73;99253.44;6169116;23;1143449;-87
2023/06/23 06:29:00;;;;;;;10.13;6.47;;;;;;;29.61;55.38;99251.59;6219466;23;20168;-88
2023/06/23 06:31:29;;;;;;;11.20;6.78;;;;;;;29.56;55.31;99248.66;6245456;23;20161;-88
2023/06/23 06:33:59;;;;;;;12.50;6.78;;;;;;;29.83;53.62;99247.81;6219980;23;20282;-88
2023/06/23 06:36:28;;;;;;;11.93;6.63;;;;;;;30.01;52.66;99246.41;6219047;23;20157;-88
2023/06/23 06:38:56;;;;;;;10.10;7.13;;;;;;;30.03;54.03;99247.06;6219413;23;20157;-88
2023/06/23 06:41:24;;;;;;;9.90;6.57;;;;;;;30.26;54.30;99242.16;6218593;23;20165;-88
2023/06/23 06:43:51;;;;;;;12.10;6.78;;;;;;;30.45;53.77;99225.19;6245587;23;20145;-88
2023/06/23 06:46:19;;;;;;;12.88;6.70;;;;;;;30.78;52.19;99226.03;6246625;23;20213;-88
2023/06/23 06:48:47;;;;;;;14.02;7.85;;;;;;;31.04;50.61;99225.22;6194297;23;20219;-88
2023/06/23 06:51:17;;;;;;;11.27;6.85;;;;;;;30.89;50.59;99222.72;6246211;23;20184;-88
2023/06/23 06:53:45;;;;;;;10.73;7.03;;;;;;;31.05;51.35;99223.34;6245952;23;20133;-89
2023/06/23 06:56:13;;;;;;;9.77;6.47;;;;;;;31.42;51.21;99217.25;6245612;23;20145;-88
2023/06/23 06:58:40;;;;;;;11.93;7.18;;;;;;;31.52;50.16;99220.41;6246822;23;20169;-88
2023/06/23 07:01:07;;;;;;;10.35;6.55;;;;;;;31.82;49.30;99224.25;6247308;23;20585;-89
2023/06/23 07:03:35;;;;;;;10.38;6.82;;;;;;;32.12;49.55;99222.69;6246993;23;20145;-89
2023/06/23 07:06:02;;;;;;;9.60;6.22;;;;;;;32.40;46.50;99222.31;6220874;23;20489;-88
2023/06/23 07:08:28;;;;;;;8.93;6.43;;;;;;;32.41;48.17;99223.16;6247059;23;20566;-89
2023/06/23 07:10:55;;;;;;;9.98;6.78;;;;;;;32.67;46.66;99220.28;6247503;23;20647;-89
2023/06/23 07:13:22;;;;;;;10.50;6.57;;;;;;;32.96;45.43;99214.19;6243805;23;20155;-88
2023/06/23 07:15:49;;;;;;;12.27;6.88;;;;;;;33.17;44.93;99221.16;6246462;23;20203;-89
2023/06/23 07:18:15;;;;;;;10.15;6.63;;;;;;;33.29;44.29;99222.06;6246230;23;20248;-88
2023/06/23 07:20:43;;;;;;;9.98;6.30;;;;;;;33.22;44.32;99219.44;6246803;23;20149;-89
2023/06/23 07:23:09;;;;;;;12.38;6.93;;;;;;;33.19;44.00;99221.75;6246809;23;20176;-89
2023/06/23 07:25:36;;;;;;;9.55;6.43;;;;;;;33.19;45.12;99219.88;6246819;23;20763;-88
2023/06/23 07:28:03;;;;;;;9.57;6.00;;;;;;;33.46;44.05;99211.44;6246491;23;20137;-89
2023/06/23 07:30:29;;;;;;;10.35;6.22;;;;;;;33.58;44.77;99220.53;6219266;23;20239;-89
2023/06/23 07:32:57;;;;;;;13.02;6.72;;;;;;;33.52;44.64;99227.66;6247360;23;20149;-89
2023/06/23 07:35:24;;;;;;;12.68;7.38;;;;;;;33.81;43.77;99226.09;6219157;23;20582;-88
2023/06/23 07:37:51;;;;;;;13.25;6.53;;;;;;;33.91;44.17;99223.72;6245825;23;20513;-89
2023/06/23 07:40:18;;;;;;;10.77;6.22;;;;;;;34.06;43.54;99218.72;6219145;23;20153;-89
2023/06/23 07:42:43;;;;;;;10.52;6.80;;;;;;;34.21;44.49;99210.13;6245825;23;20150;-89
2023/06/23 07:45:09;;;;;;;11.00;5.85;;;;;;;34.08;43.03;99215.75;6247087;23;20229;-89
2023/06/23 07:47:34;;;;;;;8.55;5.80;;;;;;;34.30;42.30;99217.78;6246623;23;20557;-89
2023/06/23 07:50:01;;;;;;;9.70;6.25;;;;;;;34.53;42.46;99212.41;6220327;23;20183;-89
2023/06/23 07:52:27;;;;;;;8.75;5.53;;;;;;;34.71;41.33;99205.22;6246443;23;20206;-89
2023/06/23 07:54:53;;;;;;;8.73;5.60;;;;;;;34.92;40.54;99207.38;6246736;23;20577;-90
2023/06/23 07:57:21;;;;;;;12.98;7.88;;;;;;;35.02;41.27;99204.91;6246602;23;20187;-87
2023/06/23 07:59:48;;;;;;;9.02;6.07;;;;;;;35.15;41.59;99204.69;6240475;23;20221;-87
2023/06/23 08:02:15;;;;;;;7.72;6.10;;;;;;;34.93;41.43;99203.63;6246192;23;20499;-88
2023/06/23 08:04:40;;;;;;;12.88;6.30;;;;;;;34.80;39.85;99192.94;6245774;23;20562;-88
2023/06/23 08:07:07;;;;;;;12.00;6.93;;;;;;;34.83;42.38;99200.66;6219879;23;20149;-88
2023/06/23 08:09:33;;;;;;;9.52;6.47;;;;;;;35.28;39.72;99195.44;6245794;23;20235;-88
2023/06/23 08:11:59;;;;;;;9.45;6.72;;;;;;;35.52;39.89;99188.91;6245745;23;20160;-88
2023/06/23 08:14:24;;;;;;;9.88;5.80;;;;;;;35.57;39.32;99184.44;6246296;23;20149;-89
2023/06/23 08:16:50;;;;;;;8.35;5.68;;;;;;;35.76;39.65;99194.13;6246517;23;20260;-88
2023/06/23 08:19:21;;;;;;;8.55;5.50;;;;;;;35.93;39.51;99196.88;6220121;23;20149;-87
2023/06/23 08:21:47;;;;;;;8.20;5.50;;;;;;;35.90;37.38;99193.84;6246410;23;20137;-89
2023/06/23 08:24:12;;;;;;;9.75;5.88;;;;;;;35.93;38.94;99193.34;6246385;23;20206;-88
2023/06/23 08:26:38;;;;;;;9.70;6.53;;;;;;;36.19;36.58;99193.63;6246615;23;20168;-89
2023/06/23 08:29:03;;;;;;;12.45;6.45;;;;;;;36.38;36.80;99191.50;6220011;23;20153;-88
2023/06/23 08:31:29;;;;;;;10.20;6.97;;;;;;;36.43;36.80;99188.88;6246808;23;20480;-89
2023/06/23 08:33:54;;;;;;;8.38;6.38;;;;;;;36.38;38.00;99192.34;6246550;23;20168;-88
2023/06/23 08:36:20;;;;;;;9.10;5.63;;;;;;;36.17;37.66;99190.31;6219749;23;20157;-88
2023/06/23 08:38:47;;;;;;;8.43;6.13;;;;;;;36.14;37.93;99187.25;6245944;23;20246;-88
2023/06/23 08:41:16;;;;;;;9.38;6.05;;;;;;;36.11;37.45;99187.75;6246631;23;20213;-87
2023/06/23 08:43:47;;;;;;;8.18;5.70;;;;;;;36.30;36.85;99170.06;6219846;23;20467;-89
2023/06/23 08:46:18;;;;;;;14.20;6.38;;;;;;;36.33;37.18;99177.75;6246134;23;20523;-90
2023/06/23 08:48:46;;;;;;;9.40;6.50;;;;;;;36.45;37.06;99170.34;6247333;23;20130;-90
2023/06/23 08:51:15;;;;;;;10.65;6.15;;;;;;;36.53;38.56;99182.81;6246393;23;20240;-87
2023/06/23 08:53:42;;;;;;;9.38;6.25;;;;;;;36.19;37.26;99176.44;6220460;23;20180;-89
2023/06/23 08:56:08;;;;;;;9.90;5.97;;;;;;;35.80;36.96;99174.53;6219990;23;20149;-88
2023/06/23 08:58:35;;;;;;;9.93;5.78;;;;;;;35.87;37.61;99172.50;6246156;23;20176;-88
2023/06/23 09:01:02;;;;;;;8.85;6.18;;;;;;;35.98;36.12;99169.69;6246137;23;20697;-88
2023/06/23 09:03:29;;;;;;;10.45;6.25;;;;;;;35.91;36.44;99168.19;6246328;23;20168;-88
2023/06/23 09:05:56;;;;;;;11.43;6.38;;;;;;;36.16;36.46;99158.63;6245540;23;20222;-88
2023/06/23 09:08:22;;;;;;;8.60;5.40;;;;;;;36.26;38.35;99166.19;6245799;23;20152;-88
2023/06/23 09:10:49;;;;;;;8.05;5.30;;;;;;;36.52;37.52;99160.13;6244822;23;20213;-88
2023/06/23 09:13:35;;;;;;;8.88;5.45;;;;;;;36.23;35.41;99162.03;6245080;23;20156;-88
2023/06/23 09:16:03;;;;;;;9.45;5.43;;;;;;;36.21;36.72;99153.28;6217734;23;20541;-88
2023/06/23 09:18:35;;;;;;;9.38;5.68;;;;;;;36.28;35.44;99153.09;6245977;23;20177;-88
2023/06/23 09:21:03;;;;;;;11.15;5.88;;;;;;;36.58;36.41;99148.22;6245721;23;20231;-88
2023/06/23 09:23:31;;;;;;;7.93;4.95;;;;;;;36.67;37.07;99146.72;6218494;23;20149;-87
2023/06/23 09:25:57;;;;;;;7.40;5.30;;;;;;;36.45;34.53;99148.50;6244928;23;20199;-87
2023/06/23 09:28:31;;;;;;;8.57;5.35;;;;;;;36.57;34.80;99140.25;6246176;23;20141;-88
2023/06/23 09:31:00;;;;;;;7.82;4.82;;;;;;;36.88;35.50;99143.22;6218668;23;20232;-88
2023/06/23 09:33:27;;;;;;;7.47;4.90;;;;;;;37.06;35.29;99141.31;6218924;23;20222;-88
2023/06/23 09:35:55;;;;;;;7.75;5.20;;;;;;;37.20;33.73;99145.34;6218310;23;20496;-87
2023/06/23 09:38:25;;;;;;;7.00;4.90;;;;;;;37.25;34.72;99148.16;6217300;23;20557;-88
2023/06/23 09:41:13;;;;;;;7.88;5.32;;;;;;;37.63;33.04;99148.16;6217815;23;20236;-87
2023/06/23 09:43:47;;;;;;;12.63;4.53;;;;;;;37.86;31.78;99150.66;6245544;23;20173;-87
2023/06/23 09:46:16;;;;;;;7.90;4.68;;;;;;;37.64;32.35;99151.69;6246184;23;20133;-88
2023/06/23 09:48:44;;;;;;;8.43;4.47;;;;;;;37.63;32.70;99144.59;6245416;23;20584;-87
2023/06/23 09:51:12;;;;;;;8.85;4.65;;;;;;;37.81;32.48;99142.34;6245971;23;20149;-87
2023/06/23 09:53:45;;;;;;;6.68;4.13;;;;;;;37.87;30.53;99141.31;6244995;23;20149;-87
2023/06/23 09:56:17;;;;;;;6.38;4.07;;;;;;;37.69;31.16;99147.09;6244229;23;20248;-88
2023/06/23 09:58:44;;;;;;;7.40;4.38;;;;;;;37.39;33.15;99143.97;6245613;23;20173;-87
2023/06/23 10:01:18;;;;;;;6.40;4.22;;;;;;;37.22;33.33;99132.25;6245291;23;20149;-89
2023/06/23 10:03:55;;;;;;;7.45;4.68;;;;;;;37.15;32.38;99126.13;6242293;23;20141;-88
2023/06/23 10:06:37;;;;;;;10.63;4.22;;;;;;;37.39;31.61;99124.84;6218804;23;20183;-87
2023/06/23 10:09:06;;;;;;;5.80;3.90;;;;;;;37.62;31.99;99121.03;6245492;23;20623;-88
2023/06/23 10:11:37;;;;;;;6.75;4.40;;;;;;;37.81;30.81;99123.19;6218980;23;20157;-88
2023/06/23 10:14:06;;;;;;;6.90;3.85;;;;;;;38.01;30.45;99123.44;6245128;23;20165;-89
2023/06/23 10:16:34;;;;;;;5.65;3.47;;;;;;;37.86;29.69;99128.75;6244443;23;20157;-89
2023/06/23 10:19:03;;;;;;;5.32;4.03;;;;;;;37.83;29.92;99111.97;6218586;23;20153;-88
2023/06/23 10:21:31;;;;;;;5.47;3.60;;;;;;;37.88;31.33;99114.78;6245297;23;20184;-89
2023/06/23 10:24:02;;;;;;;6.40;4.38;;;;;;;38.06;29.58;99104.31;6245279;23;20203;-88
2023/06/23 10:26:31;;;;;;;9.73;4.13;;;;;;;38.24;31.58;99105.00;6235711;23;20198;-89
2023/06/23 10:29:03;;;;;;;6.18;4.05;;;;;;;38.30;31.98;99106.72;6188496;23;20169;-87
2023/06/23 10:31:31;;;;;;;6.63;3.90;;;;;;;38.35;30.65;99104.03;6214416;23;20235;-88
2023/06/23 10:34:10;;;;;;;7.78;4.28;;;;;;;38.36;30.91;99102.97;6189328;23;20158;-89
2023/06/23 10:36:40;;;;;;;6.00;4.38;;;;;;;38.44;29.78;99097.00;6216295;23;20133;-89
2023/06/23 10:39:10;;;;;;;5.95;3.30;;;;;;;38.32;30.65;99088.13;6166207;23;20471;-89
2023/06/23 10:41:40;;;;;;;5.78;3.20;;;;;;;38.18;30.27;99086.91;6216981;23;20218;-89
2023/06/23 10:44:08;;;;;;;5.88;3.53;;;;;;;38.00;29.61;99088.91;6216571;23;20866;-89
2023/06/23 10:46:35;;;;;;;4.60;3.22;;;;;;;37.98;31.37;99080.13;6216887;23;20211;-88
2023/06/23 10:49:04;;;;;;;6.68;3.70;;;;;;;37.75;31.77;99083.16;6216247;23;20573;-88
2023/06/23 10:51:32;;;;;;;7.47;3.95;;;;;;;37.98;31.00;99077.41;6216729;23;20150;-88
2023/06/23 10:54:05;;;;;;;5.38;3.75;;;;;;;38.29;31.09;99085.91;6189108;23;20154;-88
2023/06/23 10:56:39;;;;;;;5.22;3.58;;;;;;;38.18;30.89;99086.91;6215704;23;20150;-88
2023/06/23 10:59:24;;;;;;;6.15;3.58;;;;;;;38.04;30.31;99076.38;6216451;23;20452;-88
2023/06/23 11:02:07;;;;;;;5.90;3.58;;;;;;;38.15;31.58;99071.81;6215882;23;20224;-89
2023/06/23 11:04:38;;;;;;;5.30;3.80;;;;;;;38.11;31.06;99079.72;6215428;23;20134;-88
2023/06/23 11:07:15;;;;;;;5.00;3.38;;;;;;;38.01;30.65;99068.69;6190287;23;20145;-89
2023/06/23 11:09:49;;;;;;;4.72;3.28;;;;;;;38.00;31.64;99075.22;6215731;23;20145;-90
2023/06/23 11:12:36;;;;;;;5.57;3.70;;;;;;;37.66;29.83;99071.00;6217427;23;20130;-89
2023/06/23 11:15:20;;;;;;;5.32;3.45;;;;;;;37.44;30.44;99072.97;6216632;23;20523;-88
2023/06/23 11:17:47;;;;;;;4.72;3.03;;;;;;;37.42;30.27;99066.94;6216783;23;20169;-89
2023/06/23 11:20:26;;;;;;;4.63;2.90;;;;;;;37.61;29.14;99072.88;6217384;23;20153;-88
2023/06/23 11:22:53;;;;;;;5.68;3.00;;;;;;;38.07;29.06;99058.59;6216981;23;20138;-88
2023/06/23 11:25:25;;;;;;;4.32;3.05;;;;;;;38.25;28.14;99060.13;6216740;23;20146;-89
2023/06/23 11:28:36;;;;;;;6.53;3.30;;;;;;;38.12;29.20;99067.69;6216512;23;20228;-88
2023/06/23 11:31:20;;;;;;;5.45;3.50;;;;;;;38.03;30.54;99058.28;6209874;23;20525;-88
2023/06/23 11:34:05;;;;;;;4.70;3.13;;;;;;;38.03;30.13;99041.84;6216699;23;20224;-88
2023/06/23 11:36:32;;;;;;;4.88;3.00;;;;;;;38.04;30.11;99045.44;6189688;23;20495;-88
2023/06/23 11:38:57;;;;;;;5.72;3.22;;;;;;;38.11;29.60;99044.13;6216435;23;20219;-88
2023/06/23 11:41:28;;;;;;;5.32;2.75;;;;;;;37.88;29.45;99044.47;6216632;23;20556;-88
2023/06/23 11:44:03;;;;;;;4.30;2.70;;;;;;;38.16;30.56;99043.34;6216264;23;20149;-88